sensor_id;sensor_type;location;lat;lon;timestamp;pressure;altitude;pressure_sealevel;temperature;humidity
17383;BME280;8809;51.892;8.384;2023-03-09T00:00:50;98029.34;;;1.36;100.00
17383;BME280;8809;51.892;8.384;2023-03-09T00:03:17;98028.53;;;1.37;100.00
17383;BME280;8809;51.892;8.384;2023-03-09T00:05:52;98027.66;;;1.37;100.00
17383;BME280;8809;51.892;8.384;2023-03-09T00:08:19;98028.53;;;1.37;100.00
17383;BME280;8809;51.892;8.384;2023-03-09T00:10:46;98030.22;;;1.37;100.00
17383;BME280;8809;51.892;8.384;2023-03-09T00:13:17;98029.41;;;1.38;100.00
17383;BME280;8809;51.892;8.384;2023-03-09T00:15:44;98020.75;;;1.36;100.00
17383;BME280;8809;51.892;8.384;2023-03-09T00:18:16;98017.38;;;1.37;100.00
17383;BME280;8809;51.892;8.384;2023-03-09T00:20:43;98021.69;;;1.38;100.00
17383;BME280;8809;51.892;8.384;2023-03-09T00:23:10;98027.66;;;1.37;100.00
17383;BME280;8809;51.892;8.384;2023-03-09T00:25:38;98019.13;;;1.38;100.00
17383;BME280;8809;51.892;8.384;2023-03-09T00:28:05;98023.41;;;1.37;100.00
17383;BME280;8809;51.892;8.384;2023-03-09T00:30:33;98025.97;;;1.37;100.00
17383;BME280;8809;51.892;8.384;2023-03-09T00:33:01;98025.16;;;1.38;100.00
17383;BME280;8809;51.892;8.384;2023-03-09T00:35:28;98026.84;;;1.38;100.00
17383;BME280;8809;51.892;8.384;2023-03-09T00:37:56;98020.88;;;1.39;100.00
17383;BME280;8809;51.892;8.384;2023-03-09T00:40:23;98020.06;;;1.40;100.00
17383;BME280;8809;51.892;8.384;2023-03-09T00:42:50;98008.91;;;1.39;100.00
17383;BME280;8809;51.892;8.384;2023-03-09T00:45:17;98014.94;;;1.40;100.00
17383;BME280;8809;51.892;8.384;2023-03-09T00:47:45;98020.06;;;1.40;100.00
17383;BME280;8809;51.892;8.384;2023-03-09T00:50:14;98014.13;;;1.41;100.00
17383;BME280;8809;51.892;8.384;2023-03-09T00:52:41;98014.13;;;1.41;100.00
17383;BME280;8809;51.892;8.384;2023-03-09T00:55:09;98020.06;;;1.40;100.00
17383;BME280;8809;51.892;8.384;2023-03-09T00:57:36;98021.81;;;1.41;100.00
17383;BME280;8809;51.892;8.384;2023-03-09T01:00:06;98021.00;;;1.42;100.00
17383;BME280;8809;51.892;8.384;2023-03-09T01:02:33;98017.63;;;1.43;100.00
17383;BME280;8809;51.892;8.384;2023-03-09T01:05:02;98015.06;;;1.43;100.00
17383;BME280;8809;51.892;8.384;2023-03-09T01:07:29;98015.06;;;1.43;100.00
17383;BME280;8809;51.892;8.384;2023-03-09T01:09:58;98009.91;;;1.43;100.00
17383;BME280;8809;51.892;8.384;2023-03-09T01:12:25;98021.09;;;1.45;100.00
17383;BME280;8809;51.892;8.384;2023-03-09T01:14:53;98019.41;;;1.45;100.00
17383;BME280;8809;51.892;8.384;2023-03-09T01:17:20;98011.66;;;1.44;100.00
17383;BME280;8809;51.892;8.384;2023-03-09T01:19:46;98011.66;;;1.44;100.00
17383;BME280;8809;51.892;8.384;2023-03-09T01:22:15;98017.66;;;1.44;100.00
17383;BME280;8809;51.892;8.384;2023-03-09T01:24:42;98027.97;;;1.46;100.00
17383;BME280;8809;51.892;8.384;2023-03-09T01:27:09;98028.78;;;1.45;100.00
17383;BME280;8809;51.892;8.384;2023-03-09T01:29:36;98029.69;;;1.45;100.00
17383;BME280;8809;51.892;8.384;2023-03-09T01:32:03;98030.56;;;1.46;100.00
17383;BME280;8809;51.892;8.384;2023-03-09T01:34:30;98031.44;;;1.46;100.00
17383;BME280;8809;51.892;8.384;2023-03-09T01:36:57;98034.88;;;1.47;100.00
17383;BME280;8809;51.892;8.384;2023-03-09T01:39:26;98036.56;;;1.46;100.00
17383;BME280;8809;51.892;8.384;2023-03-09T01:41:52;98034.81;;;1.45;100.00
17383;BME280;8809;51.892;8.384;2023-03-09T01:44:19;98040.81;;;1.46;100.00
17383;BME280;8809;51.892;8.384;2023-03-09T01:46:48;98027.06;;;1.44;100.00
17383;BME280;8809;51.892;8.384;2023-03-09T01:49:23;98027.06;;;1.44;100.00
17383;BME280;8809;51.892;8.384;2023-03-09T01:51:59;98027.91;;;1.43;100.00
17383;BME280;8809;51.892;8.384;2023-03-09T01:54:32;98028.78;;;1.43;100.00
17383;BME280;8809;51.892;8.384;2023-03-09T01:57:10;98021.81;;;1.41;100.00
17383;BME280;8809;51.892;8.384;2023-03-09T01:59:39;98025.22;;;1.40;100.00
17383;BME280;8809;51.892;8.384;2023-03-09T02:02:08;98025.22;;;1.40;100.00
17383;BME280;8809;51.892;8.384;2023-03-09T02:04:38;98036.28;;;1.39;100.00
17383;BME280;8809;51.892;8.384;2023-03-09T02:07:08;98038.88;;;1.39;100.00
17383;BME280;8809;51.892;8.384;2023-03-09T02:09:39;98033.72;;;1.39;100.00
17383;BME280;8809;51.892;8.384;2023-03-09T02:12:10;98021.69;;;1.38;100.00
17383;BME280;8809;51.892;8.384;2023-03-09T02:14:38;98044.75;;;1.36;100.00
17383;BME280;8809;51.892;8.384;2023-03-09T02:17:05;98056.72;;;1.36;100.00
17383;BME280;8809;51.892;8.384;2023-03-09T02:19:44;98056.72;;;1.36;100.00
17383;BME280;8809;51.892;8.384;2023-03-09T02:22:15;98057.59;;;1.36;100.00
17383;BME280;8809;51.892;8.384;2023-03-09T02:24:50;98054.16;;;1.36;100.00
17383;BME280;8809;51.892;8.384;2023-03-09T02:27:22;98067.81;;;1.35;100.00
17383;BME280;8809;51.892;8.384;2023-03-09T02:29:50;98071.22;;;1.34;100.00
17383;BME280;8809;51.892;8.384;2023-03-09T02:32:18;98063.56;;;1.35;100.00
17383;BME280;8809;51.892;8.384;2023-03-09T02:34:45;98056.72;;;1.36;100.00
17383;BME280;8809;51.892;8.384;2023-03-09T02:37:27;98067.81;;;1.35;100.00
17383;BME280;8809;51.892;8.384;2023-03-09T02:39:56;98057.53;;;1.35;100.00
17383;BME280;8809;51.892;8.384;2023-03-09T02:42:27;98055.81;;;1.34;100.00
17383;BME280;8809;51.892;8.384;2023-03-09T02:44:55;98078.09;;;1.35;100.00
17383;BME280;8809;51.892;8.384;2023-03-09T02:47:24;98078.06;;;1.33;100.00
17383;BME280;8809;51.892;8.384;2023-03-09T02:49:51;98074.63;;;1.33;100.00
17383;BME280;8809;51.892;8.384;2023-03-09T02:52:18;98078.09;;;1.35;100.00
17383;BME280;8809;51.892;8.384;2023-03-09T02:54:45;98091.78;;;1.34;100.00
17383;BME280;8809;51.892;8.384;2023-03-09T02:57:11;98100.28;;;1.33;100.00
17383;BME280;8809;51.892;8.384;2023-03-09T02:59:40;98093.47;;;1.33;100.00
17383;BME280;8809;51.892;8.384;2023-03-09T03:02:06;98092.59;;;1.33;100.00
17383;BME280;8809;51.892;8.384;2023-03-09T03:04:35;98091.78;;;1.34;100.00
17383;BME280;8809;51.892;8.384;2023-03-09T03:07:02;98102.94;;;1.34;100.00
17383;BME280;8809;51.892;8.384;2023-03-09T03:09:28;98102.03;;;1.34;100.00
17383;BME280;8809;51.892;8.384;2023-03-09T03:11:56;98105.44;;;1.33;100.00
17383;BME280;8809;51.892;8.384;2023-03-09T03:14:23;98113.19;;;1.34;100.00
17383;BME280;8809;51.892;8.384;2023-03-09T03:16:51;98126.88;;;1.35;100.00
17383;BME280;8809;51.892;8.384;2023-03-09T03:19:18;98124.31;;;1.35;100.00
17383;BME280;8809;51.892;8.384;2023-03-09T03:21:45;98126.88;;;1.35;100.00
17383;BME280;8809;51.892;8.384;2023-03-09T03:24:13;98120.94;;;1.36;100.00
17383;BME280;8809;51.892;8.384;2023-03-09T03:26:41;98114.91;;;1.35;100.00
17383;BME280;8809;51.892;8.384;2023-03-09T03:29:08;98123.50;;;1.36;100.00
17383;BME280;8809;51.892;8.384;2023-03-09T03:36:58;98143.22;;;1.37;100.00
17383;BME280;8809;51.892;8.384;2023-03-09T03:39:27;98153.50;;;1.37;100.00
17383;BME280;8809;51.892;8.384;2023-03-09T03:41:54;98159.47;;;1.36;100.00
17383;BME280;8809;51.892;8.384;2023-03-09T03:44:21;98156.88;;;1.36;100.00
17383;BME280;8809;51.892;8.384;2023-03-09T03:46:48;98149.19;;;1.36;100.00
17383;BME280;8809;51.892;8.384;2023-03-09T03:49:14;98168.03;;;1.36;100.00
17383;BME280;8809;51.892;8.384;2023-03-09T03:51:41;98170.59;;;1.36;100.00
17383;BME280;8809;51.892;8.384;2023-03-09T03:54:10;98179.19;;;1.37;100.00
17383;BME280;8809;51.892;8.384;2023-03-09T03:56:38;98194.59;;;1.37;100.00
17383;BME280;8809;51.892;8.384;2023-03-09T03:59:05;98197.16;;;1.37;100.00
17383;BME280;8809;51.892;8.384;2023-03-09T04:01:32;98184.31;;;1.37;100.00
17383;BME280;8809;51.892;8.384;2023-03-09T04:03:59;98189.47;;;1.37;100.00
17383;BME280;8809;51.892;8.384;2023-03-09T04:06:27;98197.16;;;1.37;100.00
17383;BME280;8809;51.892;8.384;2023-03-09T04:08:54;98198.06;;;1.37;100.00
17383;BME280;8809;51.892;8.384;2023-03-09T04:11:22;98204.06;;;1.38;100.00
17383;BME280;8809;51.892;8.384;2023-03-09T04:13:50;98224.63;;;1.38;100.00
17383;BME280;8809;51.892;8.384;2023-03-09T04:16:17;98214.34;;;1.38;100.00
17383;BME280;8809;51.892;8.384;2023-03-09T04:18:44;98232.31;;;1.38;100.00
17383;BME280;8809;51.892;8.384;2023-03-09T04:21:11;98245.16;;;1.38;100.00
17383;BME280;8809;51.892;8.384;2023-03-09T04:23:38;98244.28;;;1.37;100.00
17383;BME280;8809;51.892;8.384;2023-03-09T04:26:05;98248.59;;;1.38;100.00
17383;BME280;8809;51.892;8.384;2023-03-09T04:28:34;98246.91;;;1.39;100.00
17383;BME280;8809;51.892;8.384;2023-03-09T04:31:01;98266.66;;;1.40;100.00
17383;BME280;8809;51.892;8.384;2023-03-09T04:33:27;98254.63;;;1.39;100.00
17383;BME280;8809;51.892;8.384;2023-03-09T04:35:54;98242.59;;;1.38;100.00
17383;BME280;8809;51.892;8.384;2023-03-09T04:38:22;98251.13;;;1.37;100.00
17383;BME280;8809;51.892;8.384;2023-03-09T04:40:49;98252.00;;;1.37;100.00
17383;BME280;8809;51.892;8.384;2023-03-09T04:43:16;98239.97;;;1.36;100.00
17383;BME280;8809;51.892;8.384;2023-03-09T04:45:45;98239.97;;;1.36;100.00
17383;BME280;8809;51.892;8.384;2023-03-09T04:48:12;98253.69;;;1.37;100.00
17383;BME280;8809;51.892;8.384;2023-03-09T04:50:41;98255.44;;;1.38;100.00
17383;BME280;8809;51.892;8.384;2023-03-09T04:53:08;98257.13;;;1.37;100.00
17383;BME280;8809;51.892;8.384;2023-03-09T04:55:34;98275.16;;;1.39;100.00
17383;BME280;8809;51.892;8.384;2023-03-09T04:58:02;98282.88;;;1.39;100.00
17383;BME280;8809;51.892;8.384;2023-03-09T05:00:29;98281.13;;;1.38;100.00
17383;BME280;8809;51.892;8.384;2023-03-09T05:02:59;98289.72;;;1.38;100.00
17383;BME280;8809;51.892;8.384;2023-03-09T05:05:26;98288.81;;;1.38;100.00
17383;BME280;8809;51.892;8.384;2023-03-09T05:07:53;98306.00;;;1.39;100.00
17383;BME280;8809;51.892;8.384;2023-03-09T05:10:21;98311.13;;;1.39;100.00
17383;BME280;8809;51.892;8.384;2023-03-09T05:12:51;98306.00;;;1.39;100.00
17383;BME280;8809;51.892;8.384;2023-03-09T05:15:18;98307.69;;;1.38;100.00
17383;BME280;8809;51.892;8.384;2023-03-09T05:17:46;98321.41;;;1.39;100.00
17383;BME280;8809;51.892;8.384;2023-03-09T05:20:16;98327.41;;;1.39;100.00
17383;BME280;8809;51.892;8.384;2023-03-09T05:22:44;98328.31;;;1.40;100.00
17383;BME280;8809;51.892;8.384;2023-03-09T05:25:11;98332.56;;;1.39;100.00
17383;BME280;8809;51.892;8.384;2023-03-09T05:27:45;98350.53;;;1.39;100.00
17383;BME280;8809;51.892;8.384;2023-03-09T05:30:16;98360.00;;;1.40;100.00
17383;BME280;8809;51.892;8.384;2023-03-09T05:32:43;98358.31;;;1.41;100.00
17383;BME280;8809;51.892;8.384;2023-03-09T05:35:10;98344.59;;;1.40;100.00
17383;BME280;8809;51.892;8.384;2023-03-09T05:37:39;98353.25;;;1.42;100.00
17383;BME280;8809;51.892;8.384;2023-03-09T05:40:07;98359.25;;;1.43;100.00
17383;BME280;8809;51.892;8.384;2023-03-09T05:42:35;98370.41;;;1.43;100.00
17383;BME280;8809;51.892;8.384;2023-03-09T05:45:06;98355.88;;;1.44;100.00
17383;BME280;8809;51.892;8.384;2023-03-09T05:47:35;98349.88;;;1.43;100.00
17383;BME280;8809;51.892;8.384;2023-03-09T05:50:06;98350.75;;;1.44;100.00
17383;BME280;8809;51.892;8.384;2023-03-09T05:52:33;98359.38;;;1.46;100.00
17383;BME280;8809;51.892;8.384;2023-03-09T05:55:02;98355.97;;;1.47;100.00
17383;BME280;8809;51.892;8.384;2023-03-09T05:57:29;98353.41;;;1.47;100.00
17383;BME280;8809;51.892;8.384;2023-03-09T05:59:56;98365.44;;;1.48;100.00
17383;BME280;8809;51.892;8.384;2023-03-09T06:02:24;98385.19;;;1.49;100.00
17383;BME280;8809;51.892;8.384;2023-03-09T06:04:52;98391.22;;;1.49;100.00
17383;BME280;8809;51.892;8.384;2023-03-09T06:07:19;98395.53;;;1.51;100.00
17383;BME280;8809;51.892;8.384;2023-03-09T06:09:47;98395.53;;;1.51;100.00
17383;BME280;8809;51.892;8.384;2023-03-09T06:12:15;98406.69;;;1.51;100.00
17383;BME280;8809;51.892;8.384;2023-03-09T06:14:42;98411.03;;;1.52;100.00
17383;BME280;8809;51.892;8.384;2023-03-09T06:17:10;98420.41;;;1.52;100.00
17383;BME280;8809;51.892;8.384;2023-03-09T06:19:38;98423.88;;;1.52;100.00
17383;BME280;8809;51.892;8.384;2023-03-09T06:22:05;98427.31;;;1.53;100.00
17383;BME280;8809;51.892;8.384;2023-03-09T06:24:32;98417.91;;;1.53;100.00
17383;BME280;8809;51.892;8.384;2023-03-09T06:26:59;98424.75;;;1.53;100.00
17383;BME280;8809;51.892;8.384;2023-03-09T06:29:28;98432.44;;;1.53;100.00
17383;BME280;8809;51.892;8.384;2023-03-09T06:31:56;98437.59;;;1.53;100.00
17383;BME280;8809;51.892;8.384;2023-03-09T06:34:23;98435.06;;;1.54;100.00
17383;BME280;8809;51.892;8.384;2023-03-09T06:36:50;98431.69;;;1.55;100.00
17383;BME280;8809;51.892;8.384;2023-03-09T06:39:17;98444.53;;;1.55;100.00
17383;BME280;8809;51.892;8.384;2023-03-09T06:41:44;98451.50;;;1.58;100.00
17383;BME280;8809;51.892;8.384;2023-03-09T06:44:12;98446.28;;;1.56;100.00
17383;BME280;8809;51.892;8.384;2023-03-09T06:46:40;98442.91;;;1.57;100.00
17383;BME280;8809;51.892;8.384;2023-03-09T06:49:07;98448.13;;;1.59;100.00
17383;BME280;8809;51.892;8.384;2023-03-09T06:51:34;98443.84;;;1.59;100.00
17383;BME280;8809;51.892;8.384;2023-03-09T06:54:01;98451.63;;;1.61;100.00
17383;BME280;8809;51.892;8.384;2023-03-09T06:56:28;98442.22;;;1.61;100.00
17383;BME280;8809;51.892;8.384;2023-03-09T06:58:55;98449.13;;;1.62;100.00
17383;BME280;8809;51.892;8.384;2023-03-09T07:01:22;98454.38;;;1.65;100.00
17383;BME280;8809;51.892;8.384;2023-03-09T07:03:51;98450.13;;;1.66;100.00
17383;BME280;8809;51.892;8.384;2023-03-09T07:06:18;98451.06;;;1.68;100.00
17383;BME280;8809;51.892;8.384;2023-03-09T07:08:45;98452.00;;;1.70;100.00
17383;BME280;8809;51.892;8.384;2023-03-09T07:11:13;98471.84;;;1.72;100.00
17383;BME280;8809;51.892;8.384;2023-03-09T07:13:40;98481.28;;;1.73;100.00
17383;BME280;8809;51.892;8.384;2023-03-09T07:16:07;98501.91;;;1.75;100.00
17383;BME280;8809;51.892;8.384;2023-03-09T07:18:34;98496.81;;;1.76;100.00
17383;BME280;8809;51.892;8.384;2023-03-09T07:21:03;98493.50;;;1.79;100.00
17383;BME280;8809;51.892;8.384;2023-03-09T07:23:31;98504.69;;;1.79;100.00
17383;BME280;8809;51.892;8.384;2023-03-09T07:25:59;98495.38;;;1.83;100.00
17383;BME280;8809;51.892;8.384;2023-03-09T07:28:27;98502.34;;;1.85;100.00
17383;BME280;8809;51.892;8.384;2023-03-09T07:30:54;98505.00;;;1.87;100.00
17383;BME280;8809;51.892;8.384;2023-03-09T07:33:21;98512.78;;;1.89;100.00
17383;BME280;8809;51.892;8.384;2023-03-09T07:35:48;98505.13;;;1.90;100.00
17383;BME280;8809;51.892;8.384;2023-03-09T07:38:17;98521.50;;;1.92;100.00
17383;BME280;8809;51.892;8.384;2023-03-09T07:40:44;98526.66;;;1.92;100.00
17383;BME280;8809;51.892;8.384;2023-03-09T07:43:11;98536.09;;;1.93;100.00
17383;BME280;8809;51.892;8.384;2023-03-09T07:45:39;98554.97;;;1.94;100.00
17383;BME280;8809;51.892;8.384;2023-03-09T07:48:07;98567.97;;;1.97;100.00
17383;BME280;8809;51.892;8.384;2023-03-09T07:50:37;98563.69;;;1.97;100.00
17383;BME280;8809;51.892;8.384;2023-03-09T07:53:04;98564.66;;;1.99;100.00
17383;BME280;8809;51.892;8.384;2023-03-09T07:55:33;98549.28;;;2.01;100.00
17383;BME280;8809;51.892;8.384;2023-03-09T07:58:00;98557.03;;;2.02;100.00
17383;BME280;8809;51.892;8.384;2023-03-09T08:00:30;98555.47;;;2.06;100.00
17383;BME280;8809;51.892;8.384;2023-03-09T08:02:58;98552.19;;;2.08;100.00
17383;BME280;8809;51.892;8.384;2023-03-09T08:05:26;98565.16;;;2.11;100.00
17383;BME280;8809;51.892;8.384;2023-03-09T08:07:53;98561.81;;;2.14;100.00
17383;BME280;8809;51.892;8.384;2023-03-09T08:10:22;98549.09;;;2.17;100.00
17383;BME280;8809;51.892;8.384;2023-03-09T08:12:51;98550.94;;;2.19;100.00
17383;BME280;8809;51.892;8.384;2023-03-09T08:15:19;98572.41;;;2.21;100.00
17383;BME280;8809;51.892;8.384;2023-03-09T08:17:47;98590.50;;;2.23;100.00
17383;BME280;8809;51.892;8.384;2023-03-09T08:20:18;98590.63;;;2.26;100.00
17383;BME280;8809;51.892;8.384;2023-03-09T08:22:45;98597.53;;;2.27;100.00
17383;BME280;8809;51.892;8.384;2023-03-09T08:25:13;98608.72;;;2.28;100.00
17383;BME280;8809;51.892;8.384;2023-03-09T08:27:42;98613.84;;;2.28;100.00
17383;BME280;8809;51.892;8.384;2023-03-09T08:30:17;98621.66;;;2.29;100.00
17383;BME280;8809;51.892;8.384;2023-03-09T08:32:47;98631.13;;;2.30;100.00
17383;BME280;8809;51.892;8.384;2023-03-09T08:35:14;98621.75;;;2.32;100.00
17383;BME280;8809;51.892;8.384;2023-03-09T08:37:44;98623.50;;;2.33;100.00
17383;BME280;8809;51.892;8.384;2023-03-09T08:40:15;98621.88;;;2.35;100.00
17383;BME280;8809;51.892;8.384;2023-03-09T08:42:44;98633.06;;;2.36;100.00
17383;BME280;8809;51.892;8.384;2023-03-09T08:45:13;98633.13;;;2.37;100.00
17383;BME280;8809;51.892;8.384;2023-03-09T08:47:40;98645.19;;;2.38;100.00
17383;BME280;8809;51.892;8.384;2023-03-09T08:50:08;98649.38;;;2.36;100.00
17383;BME280;8809;51.892;8.384;2023-03-09T08:52:36;98645.19;;;2.38;100.00
17383;BME280;8809;51.892;8.384;2023-03-09T08:55:07;98648.69;;;2.40;100.00
17383;BME280;8809;51.892;8.384;2023-03-09T08:57:36;98650.50;;;2.43;100.00
17383;BME280;8809;51.892;8.384;2023-03-09T09:00:09;98648.00;;;2.44;100.00
17383;BME280;8809;51.892;8.384;2023-03-09T09:02:39;98649.81;;;2.47;100.00
17383;BME280;8809;51.892;8.384;2023-03-09T09:05:08;98648.88;;;2.45;100.00
17383;BME280;8809;51.892;8.384;2023-03-09T09:07:35;98653.16;;;2.44;100.00
17383;BME280;8809;51.892;8.384;2023-03-09T09:10:11;98653.16;;;2.44;100.00
17383;BME280;8809;51.892;8.384;2023-03-09T09:12:40;98650.66;;;2.46;100.00
17383;BME280;8809;51.892;8.384;2023-03-09T09:15:08;98659.31;;;2.48;100.00
17383;BME280;8809;51.892;8.384;2023-03-09T09:17:41;98654.16;;;2.48;100.00
17383;BME280;8809;51.892;8.384;2023-03-09T09:20:10;98662.50;;;2.42;100.00
17383;BME280;8809;51.892;8.384;2023-03-09T09:22:40;98660.78;;;2.43;100.00
17383;BME280;8809;51.892;8.384;2023-03-09T09:25:08;98665.00;;;2.41;100.00
17383;BME280;8809;51.892;8.384;2023-03-09T09:27:36;98671.03;;;2.41;100.00
17383;BME280;8809;51.892;8.384;2023-03-09T09:30:07;98684.84;;;2.43;100.00
17383;BME280;8809;51.892;8.384;2023-03-09T09:32:35;98686.53;;;2.43;100.00
17383;BME280;8809;51.892;8.384;2023-03-09T09:35:06;98680.50;;;2.42;100.00
17383;BME280;8809;51.892;8.384;2023-03-09T09:37:33;98693.44;;;2.44;100.00
17383;BME280;8809;51.892;8.384;2023-03-09T09:40:01;98701.09;;;2.42;100.00
17383;BME280;8809;51.892;8.384;2023-03-09T09:42:36;98693.28;;;2.41;100.00
17383;BME280;8809;51.892;8.384;2023-03-09T09:45:14;98698.66;;;2.45;100.00
17383;BME280;8809;51.892;8.384;2023-03-09T09:47:47;98700.34;;;2.45;100.00
17383;BME280;8809;51.892;8.384;2023-03-09T09:50:20;98712.59;;;2.50;100.00
17383;BME280;8809;51.892;8.384;2023-03-09T09:52:52;98712.66;;;2.52;100.00
17383;BME280;8809;51.892;8.384;2023-03-09T09:55:26;98705.13;;;2.56;100.00
17383;BME280;8809;51.892;8.384;2023-03-09T09:57:59;98700.13;;;2.59;100.00
17383;BME280;8809;51.892;8.384;2023-03-09T10:00:32;98709.06;;;2.68;100.00
17383;BME280;8809;51.892;8.384;2023-03-09T10:03:08;98719.59;;;2.74;100.00
17383;BME280;8809;51.892;8.384;2023-03-09T10:05:43;98706.97;;;2.80;100.00
17383;BME280;8809;51.892;8.384;2023-03-09T10:08:22;98705.53;;;2.86;100.00
17383;BME280;8809;51.892;8.384;2023-03-09T10:10:51;98698.94;;;2.93;100.00
17383;BME280;8809;51.892;8.384;2023-03-09T10:13:23;98688.94;;;3.01;100.00
17383;BME280;8809;51.892;8.384;2023-03-09T10:16:00;98697.81;;;3.07;100.00
17383;BME280;8809;51.892;8.384;2023-03-09T10:18:32;98706.22;;;3.03;100.00
17383;BME280;8809;51.892;8.384;2023-03-09T10:21:11;98716.69;;;3.08;100.00
17383;BME280;8809;51.892;8.384;2023-03-09T10:23:41;98731.53;;;3.13;100.00
17383;BME280;8809;51.892;8.384;2023-03-09T10:26:18;98743.78;;;3.19;100.00
17383;BME280;8809;51.892;8.384;2023-03-09T10:28:50;98745.59;;;3.21;100.00
17383;BME280;8809;51.892;8.384;2023-03-09T10:31:24;98748.38;;;3.26;100.00
17383;BME280;8809;51.892;8.384;2023-03-09T10:34:02;98748.53;;;3.30;100.00
17383;BME280;8809;51.892;8.384;2023-03-09T10:36:35;98750.38;;;3.33;100.00
17383;BME280;8809;51.892;8.384;2023-03-09T10:39:12;98754.88;;;3.39;100.00
17383;BME280;8809;51.892;8.384;2023-03-09T10:41:42;98745.66;;;3.44;100.00
17383;BME280;8809;51.892;8.384;2023-03-09T10:44:15;98750.09;;;3.48;100.00
17383;BME280;8809;51.892;8.384;2023-03-09T10:46:54;98749.41;;;3.52;100.00
17383;BME280;8809;51.892;8.384;2023-03-09T10:49:22;98753.75;;;3.53;100.00
17383;BME280;8809;51.892;8.384;2023-03-09T10:51:58;98758.16;;;3.55;100.00
17383;BME280;8809;51.892;8.384;2023-03-09T10:54:34;98752.34;;;3.61;100.00
17383;BME280;8809;51.892;8.384;2023-03-09T10:57:08;98764.53;;;3.65;100.00
17383;BME280;8809;51.892;8.384;2023-03-09T10:59:55;98768.09;;;3.68;100.00
17383;BME280;8809;51.892;8.384;2023-03-09T11:02:32;98764.63;;;3.68;100.00
17383;BME280;8809;51.892;8.384;2023-03-09T11:05:13;98772.56;;;3.72;100.00
17383;BME280;8809;51.892;8.384;2023-03-09T11:07:48;98774.50;;;3.78;100.00
17383;BME280;8809;51.892;8.384;2023-03-09T11:10:23;98777.31;;;3.84;100.00
17383;BME280;8809;51.892;8.384;2023-03-09T11:12:51;98782.59;;;3.87;100.00
17383;BME280;8809;51.892;8.384;2023-03-09T11:15:27;98769.69;;;3.87;100.00
17383;BME280;8809;51.892;8.384;2023-03-09T11:17:57;98771.31;;;3.85;100.00
17383;BME280;8809;51.892;8.384;2023-03-09T11:20:28;98781.81;;;3.90;100.00
17383;BME280;8809;51.892;8.384;2023-03-09T11:23:08;98779.53;;;3.97;100.00
17383;BME280;8809;51.892;8.384;2023-03-09T11:28:46;98798.75;;;4.05;100.00
17383;BME280;8809;51.892;8.384;2023-03-09T11:31:16;98805.00;;;4.10;100.00
17383;BME280;8809;51.892;8.384;2023-03-09T11:33:45;98800.03;;;4.17;100.00
17383;BME280;8809;51.892;8.384;2023-03-09T11:36:16;98811.31;;;4.19;100.00
17383;BME280;8809;51.892;8.384;2023-03-09T11:38:46;98814.03;;;4.23;100.00
17383;BME280;8809;51.892;8.384;2023-03-09T11:41:18;98820.34;;;4.30;100.00
17383;BME280;8809;51.892;8.384;2023-03-09T11:43:50;98830.00;;;4.35;100.00
17383;BME280;8809;51.892;8.384;2023-03-09T11:46:20;98827.34;;;4.34;100.00
17383;BME280;8809;51.892;8.384;2023-03-09T11:48:50;98820.44;;;4.33;100.00
17383;BME280;8809;51.892;8.384;2023-03-09T11:51:22;98823.97;;;4.35;100.00
17383;BME280;8809;51.892;8.384;2023-03-09T11:53:59;98835.09;;;4.34;100.00
17383;BME280;8809;51.892;8.384;2023-03-09T11:56:35;98832.44;;;4.31;100.00
17383;BME280;8809;51.892;8.384;2023-03-09T11:59:12;98833.31;;;4.31;100.00
17383;BME280;8809;51.892;8.384;2023-03-09T12:01:45;98830.75;;;4.33;100.00
17383;BME280;8809;51.892;8.384;2023-03-09T12:04:16;98831.63;;;4.32;100.00
17383;BME280;8809;51.892;8.384;2023-03-09T12:06:53;98832.50;;;4.32;100.00
17383;BME280;8809;51.892;8.384;2023-03-09T12:09:40;98832.53;;;4.34;100.00
17383;BME280;8809;51.892;8.384;2023-03-09T12:12:22;98838.75;;;4.39;100.00
17383;BME280;8809;51.892;8.384;2023-03-09T12:15:01;98842.16;;;4.38;100.00
17383;BME280;8809;51.892;8.384;2023-03-09T12:17:34;98847.13;;;4.33;100.00
17383;BME280;8809;51.892;8.384;2023-03-09T12:20:06;98849.69;;;4.32;100.00
17383;BME280;8809;51.892;8.384;2023-03-09T12:22:37;98848.91;;;4.34;100.00
17383;BME280;8809;51.892;8.384;2023-03-09T12:25:17;98829.03;;;4.32;100.00
17383;BME280;8809;51.892;8.384;2023-03-09T12:27:53;98846.50;;;4.39;100.00
17383;BME280;8809;51.892;8.384;2023-03-09T12:30:24;98831.94;;;4.41;100.00
17383;BME280;8809;51.892;8.384;2023-03-09T12:32:54;98839.34;;;4.32;100.00
17383;BME280;8809;51.892;8.384;2023-03-09T12:38:31;98813.69;;;4.36;100.00
17383;BME280;8809;51.892;8.384;2023-03-09T12:41:00;98809.59;;;4.41;100.00
17383;BME280;8809;51.892;8.384;2023-03-09T12:43:52;98808.94;;;4.47;100.00
17383;BME280;8809;51.892;8.384;2023-03-09T12:46:50;98818.22;;;4.42;100.00
17383;BME280;8809;51.892;8.384;2023-03-09T12:49:28;98810.81;;;4.51;100.00
17383;BME280;8809;51.892;8.384;2023-03-09T12:52:21;98811.63;;;4.50;100.00
17383;BME280;8809;51.892;8.384;2023-03-09T12:55:01;98813.41;;;4.51;100.00
17383;BME280;8809;51.892;8.384;2023-03-09T12:57:30;98806.56;;;4.53;100.00
17383;BME280;8809;51.892;8.384;2023-03-09T13:00:29;98819.47;;;4.53;100.00
17383;BME280;8809;51.892;8.384;2023-03-09T13:03:12;98820.47;;;4.57;100.00
17383;BME280;8809;51.892;8.384;2023-03-09T13:05:43;98817.78;;;4.54;100.00
17383;BME280;8809;51.892;8.384;2023-03-09T13:08:26;98817.22;;;4.62;100.00
17383;BME280;8809;51.892;8.384;2023-03-09T13:11:27;98809.59;;;4.65;100.00
17383;BME280;8809;51.892;8.384;2023-03-09T13:14:00;98809.72;;;4.68;100.00
17383;BME280;8809;51.892;8.384;2023-03-09T13:16:46;98806.19;;;4.66;100.00
17383;BME280;8809;51.892;8.384;2023-03-09T13:19:40;98817.22;;;4.62;100.00
17383;BME280;8809;51.892;8.384;2023-03-09T13:22:28;98827.78;;;4.68;100.00
17383;BME280;8809;51.892;8.384;2023-03-09T13:28:34;98824.28;;;4.66;100.00
17383;BME280;8809;51.892;8.384;2023-03-09T13:31:20;98821.81;;;4.69;100.00
17383;BME280;8809;51.892;8.384;2023-03-09T13:33:50;98824.47;;;4.72;100.00
17383;BME280;8809;51.892;8.384;2023-03-09T13:36:19;98814.25;;;4.75;100.00
17383;BME280;8809;51.892;8.384;2023-03-09T13:38:52;98813.44;;;4.76;100.00
17383;BME280;8809;51.892;8.384;2023-03-09T13:41:25;98815.84;;;4.72;100.00